createdAt,value
2022-08-23T00:05:08.167Z,18.80
2022-08-23T00:10:12.889Z,18.80
2022-08-23T00:15:17.631Z,18.80
2022-08-23T00:20:20.819Z,18.90
2022-08-23T00:25:23.322Z,18.80
2022-08-23T00:30:26.420Z,18.70
2022-08-23T00:35:28.942Z,18.50
2022-08-23T00:40:31.615Z,18.60
2022-08-23T00:46:20.099Z,18.40
2022-08-23T00:51:52.119Z,18.30
2022-08-23T00:56:58.985Z,18.30
2022-08-23T01:02:02.560Z,18.40
2022-08-23T01:07:18.374Z,18.40
2022-08-23T01:12:32.615Z,18.40
2022-08-23T01:17:42.068Z,18.50
2022-08-23T01:22:58.077Z,18.50
2022-08-23T01:28:01.682Z,18.50
2022-08-23T01:33:07.438Z,18.50
2022-08-23T01:38:11.994Z,18.60
2022-08-23T01:43:15.901Z,18.70
2022-08-23T01:48:20.756Z,18.60
2022-08-23T01:53:23.879Z,18.50
2022-08-23T01:58:27.536Z,18.40
2022-08-23T02:03:30.574Z,18.40
2022-08-23T02:08:52.414Z,18.50
2022-08-23T02:14:01.269Z,18.50
2022-08-23T02:19:14.036Z,18.40
2022-08-23T02:24:22.968Z,18.50
2022-08-23T02:29:29.695Z,18.40
2022-08-23T02:34:33.059Z,18.40
2022-08-23T02:39:36.423Z,18.40
2022-08-23T02:44:41.678Z,18.20
2022-08-23T02:49:44.918Z,18.20
2022-08-23T02:54:47.587Z,18.20
2022-08-23T02:59:50.515Z,18.30
2022-08-23T03:04:53.495Z,18.30
2022-08-23T03:09:56.106Z,18.20
2022-08-23T03:14:58.862Z,18.30
2022-08-23T03:20:02.548Z,18.40
2022-08-23T03:25:08.414Z,18.40
2022-08-23T03:30:26.872Z,18.40
2022-08-23T03:35:33.978Z,18.30
2022-08-23T03:40:39.158Z,18.20
2022-08-23T03:45:41.996Z,18.20
2022-08-23T03:50:46.431Z,18.20
2022-08-23T03:55:52.737Z,18.30
2022-08-23T04:00:55.670Z,18.40
2022-08-23T04:05:58.541Z,18.50
2022-08-23T04:11:02.634Z,18.50
2022-08-23T04:16:06.736Z,18.60
2022-08-23T04:21:18.787Z,18.70
2022-08-23T04:26:23.071Z,18.60
2022-08-23T04:31:31.898Z,18.60
2022-08-23T04:36:41.037Z,18.50
2022-08-23T04:42:10.217Z,18.50
2022-08-23T04:47:16.785Z,18.70
2022-08-23T04:52:20.074Z,18.90
2022-08-23T04:57:23.723Z,18.80
2022-08-23T05:02:26.322Z,18.90
2022-08-23T05:07:42.094Z,19.00
2022-08-23T05:12:47.178Z,19.00
2022-08-23T05:17:50.423Z,19.00
2022-08-23T05:22:53.388Z,19.00
2022-08-23T05:28:02.405Z,19.00
2022-08-23T05:33:06.951Z,19.10
2022-08-23T05:38:09.551Z,19.10
2022-08-23T05:43:12.803Z,19.20
2022-08-23T05:48:15.902Z,19.20
2022-08-23T05:53:24.946Z,19.20
2022-08-23T05:58:27.889Z,19.40
2022-08-23T06:03:30.532Z,19.40
2022-08-23T06:08:35.144Z,19.50
2022-08-23T06:13:44.523Z,19.60
2022-08-23T06:18:47.581Z,19.50
2022-08-23T06:24:09.236Z,19.50
2022-08-23T06:29:19.357Z,19.50
2022-08-23T06:34:33.450Z,19.60
2022-08-23T06:39:53.213Z,19.80
2022-08-23T06:45:14.458Z,20.10
2022-08-23T06:50:19.420Z,20.40
2022-08-23T06:55:41.526Z,20.50
2022-08-23T07:01:44.617Z,20.70
2022-08-23T07:06:55.619Z,20.70
2022-08-23T07:11:59.323Z,20.90
2022-08-23T07:17:03.689Z,20.80
2022-08-23T07:22:06.693Z,20.80
2022-08-23T07:27:10.101Z,20.70
2022-08-23T07:32:27.133Z,20.60
2022-08-23T07:37:32.776Z,20.60
2022-08-23T07:42:37.944Z,20.70
2022-08-23T07:47:46.794Z,21.20
2022-08-23T07:52:52.695Z,21.40
2022-08-23T07:57:55.379Z,22.30
2022-08-23T08:03:14.120Z,22.20
2022-08-23T08:08:37.239Z,22.20
2022-08-23T08:13:42.509Z,22.30
2022-08-23T08:18:45.526Z,22.10
2022-08-23T08:24:12.994Z,21.90
2022-08-23T08:29:28.895Z,21.90
2022-08-23T08:34:31.436Z,22.30
2022-08-23T08:39:35.065Z,22.60
2022-08-23T08:45:09.428Z,22.80
2022-08-23T08:50:38.615Z,23.00
2022-08-23T08:55:57.197Z,23.20
2022-08-23T09:01:00.246Z,23.00
2022-08-23T09:06:13.422Z,23.20
2022-08-23T09:11:45.670Z,23.60
2022-08-23T09:16:54.958Z,23.70
2022-08-23T09:22:15.173Z,23.50
2022-08-23T09:27:19.682Z,23.60
2022-08-23T09:32:28.992Z,23.70
2022-08-23T09:37:47.927Z,23.30
2022-08-23T09:43:26.106Z,23.00
2022-08-23T09:48:42.652Z,22.90
2022-08-23T09:54:10.342Z,23.20
2022-08-23T09:59:27.953Z,23.20
2022-08-23T10:04:55.246Z,23.70
2022-08-23T10:10:16.986Z,23.80
2022-08-23T10:15:27.036Z,24.40
2022-08-23T10:20:58.228Z,24.50
2022-08-23T10:26:01.797Z,24.40
2022-08-23T10:31:20.745Z,23.40
2022-08-23T10:36:33.881Z,23.00
2022-08-23T10:42:11.273Z,23.00
2022-08-23T10:47:41.506Z,23.30
2022-08-23T10:53:00.911Z,23.30
2022-08-23T10:58:05.439Z,23.00
2022-08-23T11:03:28.290Z,22.70
2022-08-23T11:08:36.867Z,22.50
2022-08-23T11:13:53.342Z,22.50
2022-08-23T11:18:57.079Z,22.50
2022-08-23T11:24:14.178Z,22.40
2022-08-23T11:29:23.511Z,22.20
2022-08-23T11:35:05.724Z,22.00
2022-08-23T11:40:16.082Z,21.90
2022-08-23T11:45:37.705Z,21.80
2022-08-23T11:50:59.824Z,22.10
2022-08-23T11:56:26.825Z,22.50
2022-08-23T12:01:34.946Z,22.90
2022-08-23T12:06:51.349Z,23.10
2022-08-23T12:11:57.135Z,23.30
2022-08-23T12:17:01.243Z,23.90
2022-08-23T12:22:17.476Z,24.30
2022-08-23T12:27:36.676Z,24.40
2022-08-23T12:33:05.919Z,24.60
2022-08-23T12:38:14.254Z,24.70
2022-08-23T12:43:24.707Z,24.60
2022-08-23T12:48:31.192Z,24.50
2022-08-23T12:53:35.398Z,24.00
2022-08-23T12:58:39.884Z,23.90
2022-08-23T13:03:46.790Z,23.90
2022-08-23T13:09:22.662Z,24.00
2022-08-23T13:14:42.313Z,23.90
2022-08-23T13:19:48.051Z,24.10
2022-08-23T13:25:29.233Z,24.00
2022-08-23T13:30:38.052Z,24.00
2022-08-23T13:41:57.230Z,24.30
2022-08-23T13:47:00.028Z,24.50
2022-08-23T13:52:50.606Z,24.60
2022-08-23T13:57:37.230Z,24.90
2022-08-23T14:02:40.005Z,24.90
2022-08-23T14:07:42.717Z,25.10
2022-08-23T14:12:47.131Z,25.10
2022-08-23T14:17:52.342Z,24.60
2022-08-23T14:22:54.976Z,24.70
2022-08-23T14:27:58.922Z,24.70
2022-08-23T14:33:02.718Z,24.70
2022-08-23T14:38:05.557Z,24.90
2022-08-23T14:43:11.173Z,24.70
2022-08-23T14:48:13.784Z,24.60
2022-08-23T14:53:18.883Z,24.80
2022-08-23T14:58:24.595Z,24.80
2022-08-23T15:03:27.972Z,25.00
2022-08-23T15:08:30.577Z,25.00
2022-08-23T15:13:37.377Z,25.10
2022-08-23T15:18:53.439Z,25.30
2022-08-23T15:23:56.023Z,25.30
2022-08-23T15:29:00.270Z,25.20
2022-08-23T15:34:04.097Z,25.60
2022-08-23T15:39:06.888Z,25.70
2022-08-23T15:44:09.590Z,25.40
2022-08-23T15:49:15.884Z,25.30
2022-08-23T15:54:18.481Z,25.70
2022-08-23T15:59:22.006Z,25.30
2022-08-23T16:04:24.509Z,24.70
2022-08-23T16:09:30.767Z,24.70
2022-08-23T16:14:33.283Z,24.80
2022-08-23T16:19:36.377Z,24.70
2022-08-23T16:24:39.248Z,24.60
2022-08-23T16:29:42.078Z,24.50
2022-08-23T16:34:44.874Z,24.40
2022-08-23T16:39:47.717Z,24.40
2022-08-23T16:44:50.280Z,24.20
2022-08-23T16:49:52.879Z,24.10
2022-08-23T16:54:55.490Z,24.00
2022-08-23T16:59:58.402Z,23.70
2022-08-23T17:05:01.575Z,23.60
2022-08-23T17:10:05.878Z,23.20
2022-08-23T17:15:10.654Z,22.80
2022-08-23T17:20:15.802Z,22.50
2022-08-23T17:25:19.305Z,22.10
2022-08-23T17:30:24.989Z,21.80
2022-08-23T17:35:33.949Z,21.50
2022-08-23T17:40:39.507Z,21.30
2022-08-23T17:45:48.384Z,21.10
2022-08-23T17:50:51.044Z,20.90
2022-08-23T17:55:53.555Z,20.70
2022-08-23T18:00:56.656Z,20.50
2022-08-23T18:05:59.506Z,20.50
2022-08-23T18:11:02.759Z,20.30
2022-08-23T18:16:06.272Z,20.20
2022-08-23T18:21:12.015Z,20.10
2022-08-23T18:26:33.563Z,20.00
2022-08-23T18:31:37.273Z,19.80
2022-08-23T18:36:40.142Z,19.80
2022-08-23T18:41:42.869Z,19.70
2022-08-23T18:46:47.125Z,19.70
2022-08-23T18:51:49.814Z,19.60
2022-08-23T18:56:52.291Z,19.40
2022-08-23T19:01:56.077Z,19.40
2022-08-23T19:06:58.822Z,19.10
2022-08-23T19:12:01.584Z,19.20
2022-08-23T19:17:08.083Z,19.10
2022-08-23T19:22:10.783Z,19.00
2022-08-23T19:27:15.222Z,18.90
2022-08-23T19:32:18.792Z,18.90
2022-08-23T19:37:22.804Z,18.80
2022-08-23T19:42:26.764Z,18.80
2022-08-23T19:47:29.777Z,18.70
2022-08-23T19:52:34.571Z,18.60
2022-08-23T19:57:38.196Z,18.70
2022-08-23T20:02:42.218Z,18.70
2022-08-23T20:07:45.576Z,18.60
2022-08-23T20:12:48.189Z,18.40
2022-08-23T20:17:50.913Z,18.40
2022-08-23T20:23:12.162Z,18.20
2022-08-23T20:28:14.890Z,18.10
2022-08-23T20:33:17.469Z,17.90
2022-08-23T20:38:22.353Z,17.90
2022-08-23T20:43:39.050Z,17.80
2022-08-23T20:48:41.600Z,17.80
2022-08-23T20:53:44.368Z,17.70
2022-08-23T20:58:47.412Z,17.70
2022-08-23T21:03:50.405Z,17.60
2022-08-23T21:08:55.984Z,17.50
2022-08-23T21:13:58.884Z,17.40
2022-08-23T21:19:01.790Z,17.40
2022-08-23T21:24:06.130Z,17.60
2022-08-23T21:29:09.768Z,17.30
2022-08-23T21:34:12.585Z,17.20
2022-08-23T21:39:15.178Z,17.10
2022-08-23T21:44:21.163Z,17.10
2022-08-23T21:49:23.763Z,17.10
2022-08-23T21:54:26.498Z,17.20
2022-08-23T21:59:29.830Z,17.10
2022-08-23T22:04:32.521Z,17.20
2022-08-23T22:09:35.112Z,17.90
2022-08-23T22:14:37.940Z,17.30
2022-08-23T22:19:40.628Z,17.40
2022-08-23T22:24:43.170Z,17.50
2022-08-23T22:29:46.604Z,17.60
2022-08-23T22:34:49.593Z,17.60
2022-08-23T22:39:56.364Z,17.50
2022-08-23T22:44:59.712Z,17.60
2022-08-23T22:50:03.571Z,17.60
2022-08-23T22:55:06.668Z,17.60
2022-08-23T23:00:11.321Z,17.40
2022-08-23T23:05:14.302Z,17.20
2022-08-23T23:10:17.061Z,17.00
2022-08-23T23:15:19.631Z,17.00
2022-08-23T23:20:39.130Z,17.00
2022-08-23T23:25:43.409Z,16.90
2022-08-23T23:30:48.056Z,17.00
2022-08-23T23:35:54.582Z,17.00
2022-08-23T23:40:57.066Z,16.90
2022-08-23T23:45:59.664Z,16.90
2022-08-23T23:51:07.970Z,16.90
2022-08-23T23:56:13.844Z,16.90
